Terminal Aerodrome Forecast
Issued by NWS Shreveport, LA

Home | Current Version | Previous Version | Text Only | Print | Product List | Glossary On
Versions: 1 2 3 4 5 6 7 8 9 10 11 12 13 14 15 16
801
FTUS44 KSHV 222323
TAFELD
TAF
KELD 222323Z 2300/2324 28008KT P6SM OVC030
      TEMPO 2300/2304 OVC035
     FM230600 28006KT P6SM OVC015
      TEMPO 2310/2314 OVC008
     FM231500 27008KT P6SM OVC015
     FM232000 29010KT P6SM OVC030=

USA.gov is the U.S. government's official web portal to all federal, state and local government web resources and services.